Pinewood, South Carolina
Current Conditions -  °F | °C
As of 8:58 AM on Friday 24 Oct 2014 (Local Time) from KSSC Reporting Station
Clear Clear  
Wind Chill: 50°   Ceiling: Unl
Heat Index: 50°   Visibility: 10mi
Dew Point: 46°   Wind: 2mph
Humidity: 85%   Direction: 10°N
Pressure: 30.06"   Gusts: NA
Location:  33.74°N, 80.46°W
Report Text: KSSC 241258Z AUTO 01002KT 10SM CLR 10/08 A3006 RMK AO2 SLP181 T01010077 $
Loading
Personal Weather Stations






























Interactive Weather Map
Tropical Storm Tracking
New forecast layout! Learn more

10-Day Weather Forecast

Advertisements
Track Severe Weather on mobile